Airfield :







YOU CAN JOIN US ON...

 
LOGIN :

Register | Disclaimer

   EN    FR    IT 

 









Legend :    VFR   Marginal VFR   IFR   Intensive IFR   Very Intensive IFR
Visi :
Ceiling :
>= 8 km
>= 3000ft
5 to 8 km
1000 to 3000 ft
1500m to 5 km
500 to 1000 ft
800 to 1500m
200 to 500 ft
< 800m
< 200 ft
Symbols :   Thunderstorms  Fog  Heavy snow  Heavy precipitations  Wind > 20 kt






- Airport Elevation : 1009 ft
- IATA code : ORH


KORH - Worcester Regional

CURRENT METAR :
  • 150854Z AUTO 30010KT 10SM CLR 17/11 A3003 RMK AO2 SLP165 T01720111 58007 $

EXPIRED METARs :
  • 150754Z AUTO 28009KT 10SM CLR 18/12 A3004 RMK AO2 SLP169 T01780117 $
  • 150654Z AUTO 27008KT 10SM CLR 17/12 A3005 RMK AO2 SLP172 T01670117 $

TAF KORH
Valid from the 15 at 06:00 until the 16 at 06:00 UTC


150540Z 1506/1606 26007KT P6SM SCT200
FM151000 29004KT P6SM FEW150
FM151400 07003KT P6SM SCT200
FM151700 10005KT P6SM BKN150
FM152100 11006KT P6SM BKN130
FM160100 09004KT P6SM SCT150
KZBW FIR / North America



MET'MAP, your aeronautical weather chart ! - Copyright ORBIFLY December 2007 - Disclaimer

ORBIFLY MET'MAP TEAM :

Programming & Development : Alexandra Zaïnal
Original concept : Baudouin d'Aumeries
Technical & hardware support : Manuel Goepfert
Assistance : Marc-Olivier Méhu




SOURCES & CREDITS :

   NOAA